Dunn, NC

5:17 PM EDT on September 30, 2014 (GMT -0400)
Simmons Army Air Field | Change Station
CLOSE
Current Station
Airport
Location: Fort Bragg,
Elevation: 243 ft
Nearby Weather Stations

Elev 243 ft 35.13 °N, 78.94 °W | Updated 19 minutes ago

Clear
Clear
78 °F
Feels Like 78 °F
N
5
Wind Variable Wind from North

Today
High -- | Low -- °F
--% Chance of Precip.
Yesterday
High -- | Low -- °F
Precip. -- in
7:08 AM 6:59 PM
Waxing Crescent, 40% visible
Pressure 29.86 in
Visibility 10.0 miles
Clouds Clear
Dew Point 62 °F
Humidity 59%
Rainfall 0.00 in
Snow Depth Not available.
UV 2 out of 12
Pollen 4.30 out of 12
Ozone Good
PM2.5 Good
Flu Activity Not available.
METAR KFBG 302058Z AUTO 36004KT 10SM CLR 25/17 A2985 RMK AO2 SLP109 T02540169 56009 $

More Conditions Fewer Conditions

Pressure 29.86 in
Visibility 10.0 miles
Clouds Clear
Dew Point 62 °F
Humidity 59%
Rainfall 0.00 in
Snow Depth Not available.
UV 2 out of 12
Pollen 4.30 out of 12
Ozone Good
PM2.5 Good
Flu Activity Not available.
METAR KFBG 302058Z AUTO 36004KT 10SM CLR 25/17 A2985 RMK AO2 SLP109 T02540169 56009 $

More Conditions Fewer Conditions

10-Day Weather Forecast

Almanac

Astronomy

Sep. 30, 2014 Rise Set
Actual Time 7:08 AM EDT 6:59 PM EDT
Civil Twilight 6:43 AM EDT 7:25 PM EDT
Nautical Twilight 6:13 AM EDT 7:54 PM EDT
Astronomical Twilight 5:44 AM EDT 8:24 PM EDT
Moon 1:05 PM EDT 11:37 PM EDT
Length of Visible Light 12h 41m
Length of Day
11h 51m
Tomorrow will be 2m 11s shorter.
Waxing Crescent, 40% of the Moon is Illuminated
Today
Waxing Crescent
Oct 1
First Quarter
Oct 8
Full
Oct 15
Last Quarter
Oct 23
New

Today's Extremes

State Highs State Lows

Community

WunderPhotos

Upload Photos

1,757,749 photos uploaded!

Nearby

Air Quality

  Air Quality AQ Index Pollutant
Yesterday Good
PM2.5
Yesterday Good
OZONE
Current Good
OZONE
Current Good
PM2.5
Tuesday Good
PM2.5
Tuesday Good
OZONE
Wednesday Good
OZONE
Wednesday Good
PM2.5
Thursday Good
PM2.5
Thursday Good
OZONE
Friday Good
PM2.5
Friday Good
OZONE

Snow Depth

Station Depth Elevation
No new snow has been reported.

Earthquake Activity

City Distance Mag. Time & Date
No recent earthquake activity has been reported nearby.
Minimum magnitude displayed is 2.5.

Coastal Water Temperatures

Place Temperature
No Stations Reporting

Nearby Weather Stations